createdAt,value
2023-07-07T00:03:52.412Z,93780.88
2023-07-07T00:09:02.261Z,93796.84
2023-07-07T00:14:06.274Z,93800.59
2023-07-07T00:19:21.389Z,93793.94
2023-07-07T00:24:23.628Z,93795.22
2023-07-07T00:29:25.680Z,93793.19
2023-07-07T00:34:30.500Z,93787.78
2023-07-07T00:39:35.758Z,93796.50
2023-07-07T00:45:14.946Z,93795.59
2023-07-07T00:50:22.236Z,93796.31
2023-07-07T00:55:36.143Z,93816.28
2023-07-07T01:00:41.902Z,93806.59
2023-07-07T01:05:47.633Z,93809.81
2023-07-07T01:10:50.138Z,93821.91
2023-07-07T01:16:23.477Z,93799.31
2023-07-07T01:21:34.090Z,93810.41
2023-07-07T01:26:54.950Z,93823.53
2023-07-07T01:32:15.034Z,93814.38
2023-07-07T01:37:23.345Z,93808.97
2023-07-07T01:43:06.199Z,93807.50
2023-07-07T01:48:16.377Z,93797.59
2023-07-07T01:53:37.601Z,93813.69
2023-07-07T01:58:43.141Z,93797.75
2023-07-07T02:03:46.138Z,93811.91
2023-07-07T02:08:51.487Z,93813.59
2023-07-07T02:13:57.030Z,93819.72
2023-07-07T02:18:59.121Z,93825.72
2023-07-07T02:24:01.350Z,93827.63
2023-07-07T02:29:04.232Z,93825.09
2023-07-07T02:34:08.790Z,93827.75
2023-07-07T02:39:11.208Z,93829.88
2023-07-07T02:44:14.991Z,93838.16
2023-07-07T02:49:18.274Z,93838.50
2023-07-07T02:54:20.115Z,93838.78
2023-07-07T02:59:22.827Z,93837.59
2023-07-07T03:04:26.128Z,93848.81
2023-07-07T03:09:29.806Z,93843.25
2023-07-07T03:14:41.198Z,93857.28
2023-07-07T03:19:46.486Z,93850.72
2023-07-07T03:24:52.729Z,93855.72
2023-07-07T03:30:08.845Z,93866.47
2023-07-07T03:35:25.584Z,93856.59
2023-07-07T03:40:31.842Z,93855.56
2023-07-07T03:45:35.603Z,93862.28
2023-07-07T03:50:41.478Z,93859.13
2023-07-07T03:55:53.146Z,93860.50
2023-07-07T04:00:56.457Z,93871.25
2023-07-07T04:06:04.915Z,93881.16
2023-07-07T04:11:11.809Z,93876.16
2023-07-07T04:16:25.743Z,93875.38
2023-07-07T04:21:29.423Z,93879.66
2023-07-07T04:26:32.822Z,93876.78
2023-07-07T04:31:35.065Z,93881.22
2023-07-07T04:36:37.799Z,93873.81
2023-07-07T04:41:42.684Z,93888.03
2023-07-07T04:46:44.985Z,93891.75
2023-07-07T04:51:47.246Z,93892.53
2023-07-07T04:56:49.198Z,93886.94
2023-07-07T05:01:55.755Z,93898.09
2023-07-07T05:06:57.695Z,93904.41
2023-07-07T05:12:01.778Z,93922.63
2023-07-07T05:17:06.486Z,93915.50
2023-07-07T05:22:08.773Z,93923.25
2023-07-07T05:27:16.623Z,93920.69
2023-07-07T05:32:24.732Z,93929.00
2023-07-07T05:37:31.156Z,93937.97
2023-07-07T05:42:34.010Z,93931.84
2023-07-07T05:47:36.333Z,93935.81
2023-07-07T05:52:38.354Z,93944.69
2023-07-07T05:57:52.360Z,93939.84
2023-07-07T06:03:04.399Z,93944.44
2023-07-07T06:08:06.837Z,93943.56
2023-07-07T06:13:10.364Z,93949.81
2023-07-07T06:18:12.670Z,93938.41
2023-07-07T06:23:15.390Z,93942.66
2023-07-07T06:28:18.360Z,93945.25
2023-07-07T06:33:22.210Z,93948.34
2023-07-07T06:38:24.541Z,93946.84
2023-07-07T06:43:29.702Z,93936.91
2023-07-07T06:48:35.607Z,93938.28
2023-07-07T06:53:41.575Z,93945.25
2023-07-07T06:58:43.822Z,93943.06
2023-07-07T07:03:46.238Z,93947.56
2023-07-07T07:08:48.496Z,93945.56
2023-07-07T07:13:50.669Z,93950.75
2023-07-07T07:18:52.846Z,93946.34
2023-07-07T07:23:57.999Z,93948.66
2023-07-07T07:29:00.558Z,93941.56
2023-07-07T07:34:20.453Z,93949.53
2023-07-07T07:39:24.349Z,93953.69
2023-07-07T07:44:30.922Z,93954.84
2023-07-07T07:49:37.721Z,93953.09
2023-07-07T07:54:39.798Z,93956.66
2023-07-07T07:59:42.117Z,93943.09
2023-07-07T08:04:47.965Z,93944.56
2023-07-07T08:09:52.730Z,93935.75
2023-07-07T08:14:54.708Z,93938.19
2023-07-07T08:20:03.126Z,93933.69
2023-07-07T08:25:08.284Z,93927.53
2023-07-07T08:30:11.109Z,93923.94
2023-07-07T08:35:15.973Z,93929.56
2023-07-07T08:40:21.476Z,93924.06
2023-07-07T08:45:24.314Z,93916.19
2023-07-07T08:50:46.929Z,93914.97
2023-07-07T08:55:57.851Z,93905.06
2023-07-07T09:01:15.116Z,93900.13
2023-07-07T09:06:26.887Z,93906.28
2023-07-07T09:12:26.430Z,93899.75
2023-07-07T09:17:36.344Z,93900.31
2023-07-07T09:22:48.994Z,93909.81
2023-07-07T09:28:17.807Z,93898.63
2023-07-07T09:33:24.176Z,93898.66
2023-07-07T09:38:54.212Z,93898.19
2023-07-07T09:44:38.059Z,93892.84
2023-07-07T09:49:49.644Z,93891.31
2023-07-07T09:54:52.661Z,93883.66
2023-07-07T09:59:57.255Z,93889.44
2023-07-07T10:05:05.149Z,93891.50
2023-07-07T10:10:10.730Z,93885.66
2023-07-07T10:15:55.721Z,93892.03
2023-07-07T10:21:05.255Z,93885.38
2023-07-07T10:26:08.450Z,93886.06
2023-07-07T10:31:11.690Z,93893.16
2023-07-07T10:36:31.662Z,93889.63
2023-07-07T10:41:33.855Z,93890.84
2023-07-07T10:46:39.452Z,93884.53
2023-07-07T10:52:03.675Z,93880.06
2023-07-07T10:57:50.433Z,93886.44
2023-07-07T11:03:24.752Z,93881.44
2023-07-07T11:08:58.273Z,93877.56
2023-07-07T11:14:35.230Z,93870.59
2023-07-07T11:19:59.127Z,93870.31
2023-07-07T11:25:25.414Z,93875.38
2023-07-07T11:30:36.986Z,93865.81
2023-07-07T11:35:41.666Z,93858.59
2023-07-07T11:41:01.623Z,93866.13
2023-07-07T11:46:43.411Z,93871.94
2023-07-07T11:52:15.376Z,93856.91
2023-07-07T11:57:54.892Z,93831.28
2023-07-07T12:03:22.992Z,93826.44
2023-07-07T12:08:45.476Z,93829.44
2023-07-07T12:14:00.877Z,93829.03
2023-07-07T12:19:38.775Z,93814.69
2023-07-07T12:25:02.269Z,93812.66
2023-07-07T12:30:05.234Z,93815.69
2023-07-07T12:35:14.367Z,93818.44
2023-07-07T12:40:21.274Z,93796.25
2023-07-07T12:45:41.695Z,93792.28
2023-07-07T12:50:49.146Z,93791.63
2023-07-07T12:56:06.796Z,93778.63
2023-07-07T13:01:20.841Z,93768.53
2023-07-07T13:06:53.003Z,93764.31
2023-07-07T13:11:58.743Z,93765.59
2023-07-07T13:17:09.189Z,93751.66
2023-07-07T13:22:19.287Z,93743.81
2023-07-07T13:27:23.444Z,93757.31
2023-07-07T13:32:30.237Z,93747.00
2023-07-07T13:37:34.056Z,93752.13
2023-07-07T13:42:37.861Z,93746.44
2023-07-07T13:47:43.542Z,93751.59
2023-07-07T13:52:48.778Z,93741.28
2023-07-07T13:57:51.734Z,93738.28
2023-07-07T14:02:54.120Z,93744.44
2023-07-07T14:07:57.170Z,93738.09
2023-07-07T14:13:02.524Z,93732.06
2023-07-07T14:18:13.237Z,93732.50
2023-07-07T14:23:19.389Z,93712.47
2023-07-07T14:34:11.696Z,93700.03
2023-07-07T14:39:24.912Z,93709.03
2023-07-07T14:45:02.111Z,93698.56
2023-07-07T14:50:07.650Z,93688.16
2023-07-07T14:55:35.829Z,93688.75
2023-07-07T15:00:44.018Z,93681.13
2023-07-07T15:05:46.417Z,93685.81
2023-07-07T15:10:48.616Z,93678.25
2023-07-07T15:15:54.038Z,93677.38
2023-07-07T15:20:56.237Z,93676.44
2023-07-07T15:26:01.214Z,93680.13
2023-07-07T15:31:03.987Z,93673.00
2023-07-07T15:36:06.177Z,93678.56
2023-07-07T15:41:15.176Z,93671.94
2023-07-07T15:46:27.415Z,93680.25
2023-07-07T15:51:35.716Z,93683.41
2023-07-07T15:56:43.696Z,93686.69
2023-07-07T16:02:00.826Z,93677.34
2023-07-07T16:07:06.424Z,93669.03
2023-07-07T16:12:18.849Z,93673.75
2023-07-07T16:17:24.213Z,93656.59
2023-07-07T16:22:29.378Z,93673.94
2023-07-07T16:27:31.405Z,93668.53
2023-07-07T16:32:36.479Z,93660.50
2023-07-07T16:37:40.705Z,93662.59
2023-07-07T16:42:42.669Z,93668.28
2023-07-07T16:47:46.475Z,93669.78
2023-07-07T16:52:54.655Z,93676.06
2023-07-07T16:57:56.600Z,93669.72
2023-07-07T17:02:58.759Z,93670.19
2023-07-07T17:08:01.072Z,93661.06
2023-07-07T17:13:07.752Z,93681.22
2023-07-07T17:18:11.802Z,93685.44
2023-07-07T17:23:18.685Z,93677.44
2023-07-07T17:28:21.173Z,93683.16
2023-07-07T17:33:31.879Z,93682.72
2023-07-07T17:38:35.060Z,93686.22
2023-07-07T17:43:37.957Z,93703.69
2023-07-07T17:48:40.213Z,93698.72
2023-07-07T17:53:43.502Z,93696.94
2023-07-07T18:04:06.761Z,93712.31
2023-07-07T18:09:13.235Z,93714.03
2023-07-07T18:14:15.516Z,93709.53
2023-07-07T18:19:49.125Z,93719.81
2023-07-07T18:24:40.410Z,93713.28
2023-07-07T18:29:44.173Z,93722.50
2023-07-07T18:34:49.532Z,93731.09
2023-07-07T18:39:51.760Z,93735.75
2023-07-07T18:44:54.011Z,93749.22
2023-07-07T18:49:56.664Z,93750.25
2023-07-07T18:55:00.254Z,93749.19
2023-07-07T19:00:32.235Z,93754.00
2023-07-07T19:05:34.945Z,93763.31
2023-07-07T19:10:39.720Z,93757.53
2023-07-07T19:15:46.738Z,93777.47
2023-07-07T19:20:54.297Z,93783.59
2023-07-07T19:26:03.205Z,93789.59
2023-07-07T19:31:17.501Z,93798.63
2023-07-07T19:36:21.622Z,93808.22
2023-07-07T19:41:32.459Z,93803.19
2023-07-07T19:46:38.826Z,93814.66
2023-07-07T19:51:41.309Z,93812.03
2023-07-07T19:56:44.630Z,93821.22
2023-07-07T20:01:47.869Z,93834.34
2023-07-07T20:06:50.086Z,93837.94
2023-07-07T20:11:57.297Z,93837.31
2023-07-07T20:17:01.243Z,93849.34
2023-07-07T20:22:09.301Z,93849.00
2023-07-07T20:27:12.817Z,93859.50
2023-07-07T20:32:18.035Z,93866.50
2023-07-07T20:37:20.094Z,93864.91
2023-07-07T20:42:22.363Z,93874.00
2023-07-07T20:47:24.775Z,93880.38
2023-07-07T20:52:26.769Z,93885.38
2023-07-07T20:57:28.967Z,93888.84
2023-07-07T21:02:31.053Z,93907.03
2023-07-07T21:07:33.186Z,93901.94
2023-07-07T21:12:37.007Z,93904.50
2023-07-07T21:17:39.443Z,93912.00
2023-07-07T21:22:41.799Z,93911.69
2023-07-07T21:27:43.982Z,93910.19
2023-07-07T21:32:46.515Z,93917.88
2023-07-07T21:37:56.344Z,93926.59
2023-07-07T21:43:03.410Z,93923.63
2023-07-07T21:48:19.101Z,93922.94
2023-07-07T21:53:21.349Z,93921.38
2023-07-07T21:58:23.475Z,93931.97
2023-07-07T22:03:25.417Z,93929.84
2023-07-07T22:08:27.511Z,93928.63
2023-07-07T22:13:31.830Z,93932.00
2023-07-07T22:18:53.692Z,93932.66
2023-07-07T22:24:00.689Z,93928.09
2023-07-07T22:29:13.689Z,93934.44
2023-07-07T22:34:18.490Z,93930.88
2023-07-07T22:39:20.566Z,93936.81
2023-07-07T22:44:23.048Z,93943.63
2023-07-07T22:49:25.687Z,93941.75
2023-07-07T22:54:30.201Z,93955.69
2023-07-07T22:59:38.066Z,93957.66
2023-07-07T23:04:40.430Z,93964.88
2023-07-07T23:09:47.668Z,93964.59
2023-07-07T23:14:50.937Z,93972.97
2023-07-07T23:20:03.240Z,93969.50
2023-07-07T23:25:09.335Z,93973.53
2023-07-07T23:30:18.162Z,93988.88
2023-07-07T23:35:23.957Z,93982.94
2023-07-07T23:40:42.724Z,93977.41
2023-07-07T23:45:45.234Z,94004.06
2023-07-07T23:50:54.899Z,94009.94
2023-07-07T23:56:01.174Z,94023.56
